Asli Elif — TCOJ9 — position and weather

sailwx.info

Track history (hours):
 
Tides and Currents Weather Stations Pressure Air Temp Water Temp Dewpoint Dewpoint Depression Visibility Wind Speed Wind Dir Waves Ship Positions

Asli Elif

Last reported at 2017-Dec-10 09:53 UTC. Time now 2017-Dec-15 09:55 UTC.
Position N 35°50' E 014°42'.

Length 89 m; draft 5.7 m.

Type: Cargo ship. MMSI: 271000833.

Date/timePositionNaut miles runAvg speedWind from/ knotsBaromVisibWave heightAir tempDewpointWater temp
2017-Dec-10 09:53N 35°50' E 014°42'5 8.3
2017-Dec-10 09:18N 35°50' E 014°36'0 0.1
2017-Dec-10 07:57N 35°50' E 014°36'0 0.0
2017-Dec-10 06:06N 35°50' E 014°36'0 0.0
2017-Dec-10 05:03N 35°50' E 014°36'0 0.0
2017-Dec-10 05:00N 35°50' E 014°36'0 0.0
2017-Dec-10 04:30N 35°50' E 014°36'0 0.0
2017-Dec-10 02:45N 35°50' E 014°36'1 1.2
2017-Dec-10 01:36N 35°51' E 014°37'4 8.9
2017-Dec-10 01:12N 35°55' E 014°37'310.0
2017-Dec-10 00:57N 35°57' E 014°35'510.1
2017-Dec-10 00:30N 35°60' E 014°30'510.2
2017-Dec-10 00:00N 36°03' E 014°26'510.0
2017-Dec-09 23:30N 36°06' E 014°21'5 9.7
2017-Dec-09 23:00N 36°09' E 014°16'5 9.5
2017-Dec-09 22:30N 36°11' E 014°11'5 9.4
2017-Dec-09 22:00N 36°13' E 014°05'5 9.6
2017-Dec-09 21:30N 36°15' E 014°00'5 9.7
2017-Dec-09 21:00N 36°17' E 013°55'5 9.6
2017-Dec-09 20:30N 36°19' E 013°49'  
2017-Dec-01 10:59N 38°47' E 008°42'810.7
2017-Dec-01 10:16N 38°48' E 008°52'  
Track history (hours):
 
Tides and Currents Weather Stations Pressure Air Temp Water Temp Dewpoint Dewpoint Depression Visibility Wind Speed Wind Dir Waves Ship Positions

Asli Elif

Last reported at 2017-Dec-10 09:53 UTC. Time now 2017-Dec-15 09:55 UTC.
Position N 35°50' E 014°42'.

Length 89 m; draft 5.7 m.

Type: Cargo ship. MMSI: 271000833.

Date/timePositionNaut miles runAvg speedWind from/ knotsBaromVisibWave heightAir tempDewpointWater temp
2017-Dec-10 09:53N 35°50' E 014°42'5 8.3
2017-Dec-10 09:18N 35°50' E 014°36'0 0.1
2017-Dec-10 07:57N 35°50' E 014°36'0 0.0
2017-Dec-10 06:06N 35°50' E 014°36'0 0.0
2017-Dec-10 05:03N 35°50' E 014°36'0 0.0
2017-Dec-10 05:00N 35°50' E 014°36'0 0.0
2017-Dec-10 04:30N 35°50' E 014°36'0 0.0
2017-Dec-10 02:45N 35°50' E 014°36'1 1.2
2017-Dec-10 01:36N 35°51' E 014°37'4 8.9
2017-Dec-10 01:12N 35°55' E 014°37'310.0
2017-Dec-10 00:57N 35°57' E 014°35'510.1
2017-Dec-10 00:30N 35°60' E 014°30'510.2
2017-Dec-10 00:00N 36°03' E 014°26'510.0
2017-Dec-09 23:30N 36°06' E 014°21'5 9.7
2017-Dec-09 23:00N 36°09' E 014°16'5 9.5
2017-Dec-09 22:30N 36°11' E 014°11'5 9.4
2017-Dec-09 22:00N 36°13' E 014°05'5 9.6
2017-Dec-09 21:30N 36°15' E 014°00'5 9.7
2017-Dec-09 21:00N 36°17' E 013°55'5 9.6
2017-Dec-09 20:30N 36°19' E 013°49'  
2017-Dec-01 10:59N 38°47' E 008°42'810.7
2017-Dec-01 10:16N 38°48' E 008°52'  

Dump ship's entire track history